createdAt,value
2023-03-03T00:00:36.737Z,0.00
2023-03-03T00:05:23.114Z,0.00
2023-03-03T00:10:28.534Z,0.00
2023-03-03T00:15:35.144Z,0.00
2023-03-03T00:20:24.010Z,0.00
2023-03-03T00:25:29.703Z,0.00
2023-03-03T00:30:19.664Z,0.00
2023-03-03T00:35:24.951Z,0.00
2023-03-03T00:40:31.678Z,0.00
2023-03-03T00:45:19.911Z,0.00
2023-03-03T00:50:25.928Z,0.00
2023-03-03T00:55:31.461Z,0.00
2023-03-03T01:00:23.572Z,0.00
2023-03-03T01:05:27.483Z,0.00
2023-03-03T01:10:33.844Z,0.00
2023-03-03T01:15:21.771Z,0.00
2023-03-03T01:20:28.638Z,0.00
2023-03-03T01:25:34.588Z,0.00
2023-03-03T01:30:23.362Z,0.00
2023-03-03T01:35:29.125Z,0.00
2023-03-03T01:40:37.559Z,0.00
2023-03-03T01:45:24.696Z,0.00
2023-03-03T01:50:30.550Z,0.00
2023-03-03T01:55:18.871Z,0.00
2023-03-03T02:00:31.605Z,0.00
2023-03-03T02:05:30.436Z,0.00
2023-03-03T02:10:21.961Z,0.00
2023-03-03T02:15:25.817Z,0.00
2023-03-03T02:20:33.578Z,0.00
2023-03-03T02:25:20.729Z,0.00
2023-03-03T02:30:26.775Z,0.00
2023-03-03T02:35:33.218Z,0.00
2023-03-03T02:40:24.424Z,0.00
2023-03-03T02:45:27.809Z,0.00
2023-03-03T02:50:33.546Z,0.00
2023-03-03T02:55:22.174Z,0.00
2023-03-03T03:00:32.115Z,0.00
2023-03-03T03:05:36.830Z,0.00
2023-03-03T03:10:27.909Z,0.00
2023-03-03T03:15:30.370Z,0.00
2023-03-03T03:20:19.792Z,0.00
2023-03-03T03:25:25.677Z,0.00
2023-03-03T03:30:31.397Z,0.00
2023-03-03T03:35:19.969Z,0.00
2023-03-03T03:40:27.000Z,0.00
2023-03-03T03:45:33.192Z,0.00
2023-03-03T03:50:21.173Z,0.00
2023-03-03T03:55:26.706Z,0.00
2023-03-03T04:00:36.565Z,0.00
2023-03-03T04:05:21.384Z,0.00
2023-03-03T04:10:32.812Z,0.00
2023-03-03T04:15:33.590Z,0.00
2023-03-03T04:20:24.943Z,0.00
2023-03-03T04:25:28.745Z,0.00
2023-03-03T04:30:35.621Z,0.00
2023-03-03T04:35:23.579Z,0.00
2023-03-03T04:40:30.001Z,0.00
2023-03-03T04:45:18.422Z,0.00
2023-03-03T04:50:24.806Z,0.00
2023-03-03T04:55:31.431Z,0.00
2023-03-03T05:00:24.391Z,0.00
2023-03-03T05:05:26.174Z,0.00
2023-03-03T05:10:37.943Z,0.00
2023-03-03T05:15:21.435Z,0.00
2023-03-03T05:20:29.794Z,0.00
2023-03-03T05:25:33.581Z,0.00
2023-03-03T05:30:22.629Z,0.00
2023-03-03T05:35:28.397Z,0.00
2023-03-03T05:40:37.564Z,0.00
2023-03-03T05:45:23.551Z,0.02
2023-03-03T05:50:29.315Z,0.56
2023-03-03T05:55:34.928Z,2.11
2023-03-03T06:00:34.152Z,3.89
2023-03-03T06:05:30.513Z,6.18
2023-03-03T06:10:21.640Z,8.91
2023-03-03T06:15:27.371Z,11.91
2023-03-03T06:20:31.663Z,14.81
2023-03-03T06:25:20.046Z,17.67
2023-03-03T06:30:27.294Z,20.89
2023-03-03T06:35:33.047Z,24.78
2023-03-03T06:40:21.768Z,33.19
2023-03-03T06:45:27.795Z,39.18
2023-03-03T06:50:35.316Z,43.36
2023-03-03T06:55:22.273Z,40.91
2023-03-03T07:00:36.142Z,38.75
2023-03-03T07:05:35.273Z,40.41
2023-03-03T07:10:29.438Z,42.85
2023-03-03T07:15:30.752Z,45.83
2023-03-03T07:20:19.888Z,53.94
2023-03-03T07:25:25.303Z,80.83
2023-03-03T07:30:31.718Z,97.13
2023-03-03T07:35:20.329Z,105.01
2023-03-03T07:40:27.427Z,110.94
2023-03-03T07:45:32.382Z,118.90
2023-03-03T07:50:20.850Z,127.20
2023-03-03T07:55:27.166Z,135.67
2023-03-03T08:00:36.450Z,148.05
2023-03-03T08:05:22.640Z,220.07
2023-03-03T08:10:35.091Z,214.22
2023-03-03T08:15:33.755Z,123.76
2023-03-03T08:20:25.764Z,111.09
2023-03-03T08:25:28.851Z,102.94
2023-03-03T08:30:35.481Z,117.83
2023-03-03T08:35:23.405Z,106.88
2023-03-03T08:40:30.515Z,124.95
2023-03-03T08:45:18.488Z,144.01
2023-03-03T08:50:28.259Z,245.48
2023-03-03T08:55:30.988Z,296.08
2023-03-03T09:00:22.554Z,268.10
2023-03-03T09:05:26.767Z,309.76
2023-03-03T09:10:40.444Z,294.29
2023-03-03T09:15:20.552Z,316.40
2023-03-03T09:20:27.550Z,339.02
2023-03-03T09:25:32.738Z,347.53
2023-03-03T09:30:21.986Z,352.84
2023-03-03T09:35:28.118Z,359.79
2023-03-03T09:40:28.441Z,365.96
2023-03-03T09:45:23.172Z,353.37
2023-03-03T09:50:29.294Z,375.36
2023-03-03T09:55:37.062Z,387.29
2023-03-03T10:00:26.643Z,379.07
2023-03-03T10:05:29.949Z,353.27
2023-03-03T10:10:19.015Z,349.71
2023-03-03T10:15:26.828Z,354.86
2023-03-03T10:20:37.461Z,387.38
2023-03-03T10:25:19.733Z,349.30
2023-03-03T10:30:38.975Z,363.14
2023-03-03T10:35:18.673Z,397.39
2023-03-03T10:40:21.467Z,436.73
2023-03-03T10:45:28.021Z,445.89
2023-03-03T10:50:33.848Z,449.11
2023-03-03T10:55:21.973Z,450.12
2023-03-03T11:00:31.562Z,454.20
2023-03-03T11:05:37.044Z,463.00
2023-03-03T11:10:27.419Z,466.28
2023-03-03T11:15:32.829Z,467.34
2023-03-03T11:20:19.691Z,469.85
2023-03-03T11:25:24.901Z,469.57
2023-03-03T11:30:31.962Z,467.24
2023-03-03T11:35:20.041Z,464.37
2023-03-03T11:40:26.539Z,463.42
2023-03-03T11:45:32.275Z,462.65
2023-03-03T11:50:20.509Z,459.77
2023-03-03T11:55:27.504Z,457.93
2023-03-03T12:00:37.327Z,454.24
2023-03-03T12:05:21.151Z,446.63
2023-03-03T12:10:33.572Z,440.33
2023-03-03T12:15:34.203Z,437.38
2023-03-03T12:20:22.482Z,436.59
2023-03-03T12:25:28.370Z,435.13
2023-03-03T12:30:34.867Z,433.18
2023-03-03T12:35:23.334Z,425.44
2023-03-03T12:40:30.494Z,417.04
2023-03-03T12:45:18.289Z,409.68
2023-03-03T12:50:24.137Z,402.84
2023-03-03T12:55:30.319Z,400.55
2023-03-03T13:00:23.167Z,395.26
2023-03-03T13:05:26.001Z,381.16
2023-03-03T13:10:31.644Z,372.47
2023-03-03T13:15:24.853Z,361.43
2023-03-03T13:20:26.999Z,352.71
2023-03-03T13:25:33.608Z,352.79
2023-03-03T13:30:21.825Z,345.72
2023-03-03T13:35:28.039Z,339.56
2023-03-03T13:40:34.709Z,335.20
2023-03-03T13:45:23.322Z,327.64
2023-03-03T13:50:38.812Z,319.45
2023-03-03T13:55:35.632Z,309.63
2023-03-03T14:00:27.740Z,296.87
2023-03-03T14:05:31.117Z,282.73
2023-03-03T14:10:20.992Z,275.44
2023-03-03T14:15:25.690Z,252.04
2023-03-03T14:20:32.601Z,214.72
2023-03-03T14:25:19.954Z,203.56
2023-03-03T14:30:26.757Z,173.84
2023-03-03T14:35:38.258Z,120.72
2023-03-03T14:40:21.289Z,157.24
2023-03-03T14:45:30.273Z,167.22
2023-03-03T14:50:33.772Z,106.17
2023-03-03T14:55:22.637Z,134.85
2023-03-03T15:00:36.737Z,142.81
2023-03-03T15:05:35.993Z,131.81
2023-03-03T15:10:23.927Z,110.24
2023-03-03T15:15:30.543Z,102.54
2023-03-03T15:20:20.741Z,86.03
2023-03-03T15:25:41.891Z,59.53
2023-03-03T15:30:31.393Z,55.23
2023-03-03T15:35:20.239Z,52.19
2023-03-03T15:40:26.372Z,49.03
2023-03-03T15:45:33.487Z,47.14
2023-03-03T15:50:20.825Z,44.16
2023-03-03T15:55:27.029Z,41.23
2023-03-03T16:00:38.811Z,39.31
2023-03-03T16:05:21.520Z,36.78
2023-03-03T16:10:28.490Z,33.95
2023-03-03T16:15:33.889Z,30.62
2023-03-03T16:20:23.097Z,27.12
2023-03-03T16:25:28.629Z,23.75
2023-03-03T16:30:35.109Z,20.87
2023-03-03T16:35:23.836Z,17.64
2023-03-03T16:40:30.048Z,14.05
2023-03-03T16:45:19.052Z,10.53
2023-03-03T16:50:25.559Z,7.16
2023-03-03T16:55:32.867Z,4.14
2023-03-03T17:00:24.924Z,1.98
2023-03-03T17:05:26.273Z,0.41
2023-03-03T17:10:33.858Z,0.00
2023-03-03T17:15:21.156Z,0.00
2023-03-03T17:20:28.152Z,0.00
2023-03-03T17:25:33.243Z,0.00
2023-03-03T17:30:22.582Z,0.00
2023-03-03T17:35:28.427Z,0.00
2023-03-03T17:40:35.213Z,0.00
2023-03-03T17:45:23.167Z,0.00
2023-03-03T17:50:29.222Z,0.00
2023-03-03T17:55:34.573Z,0.00
2023-03-03T18:00:27.076Z,0.00
2023-03-03T18:05:29.981Z,0.00
2023-03-03T18:10:24.826Z,0.00
2023-03-03T18:15:25.545Z,0.00
2023-03-03T18:20:34.141Z,0.00
2023-03-03T18:25:19.576Z,0.00
2023-03-03T18:30:26.378Z,0.00
2023-03-03T18:35:31.883Z,0.00
2023-03-03T18:40:22.736Z,0.00
2023-03-03T18:45:27.089Z,0.00
2023-03-03T18:50:34.294Z,0.00
2023-03-03T18:55:22.495Z,0.00
2023-03-03T19:00:31.374Z,0.00
2023-03-03T19:05:34.279Z,0.00
2023-03-03T19:10:26.910Z,0.00
2023-03-03T19:15:29.992Z,0.00
2023-03-03T19:20:37.219Z,0.00
2023-03-03T19:25:23.336Z,0.00
2023-03-03T19:30:30.070Z,0.00
2023-03-03T19:35:18.761Z,0.00
2023-03-03T19:40:25.654Z,0.00
2023-03-03T19:45:30.955Z,0.00
2023-03-03T19:50:19.386Z,0.00
2023-03-03T19:55:25.831Z,0.00
2023-03-03T20:00:36.456Z,0.00
2023-03-03T20:05:21.805Z,0.00
2023-03-03T20:10:31.566Z,0.00
2023-03-03T20:15:32.875Z,0.00
2023-03-03T20:20:23.414Z,0.00
2023-03-03T20:25:28.151Z,0.00
2023-03-03T20:30:34.164Z,0.00
2023-03-03T20:35:22.447Z,0.00
2023-03-03T20:40:29.030Z,0.00
2023-03-03T20:45:35.251Z,0.00
2023-03-03T20:50:23.902Z,0.00
2023-03-03T20:55:30.227Z,0.00
2023-03-03T21:00:23.704Z,0.00
2023-03-03T21:05:29.432Z,0.00
2023-03-03T21:10:35.903Z,0.00
2023-03-03T21:15:20.249Z,0.00
2023-03-03T21:20:26.589Z,0.00
2023-03-03T21:25:32.473Z,0.00
2023-03-03T21:30:21.562Z,0.00
2023-03-03T21:35:27.811Z,0.00
2023-03-03T21:40:35.541Z,0.00
2023-03-03T21:45:22.066Z,0.00
2023-03-03T21:50:27.678Z,0.00
2023-03-03T21:55:34.068Z,0.00
2023-03-03T22:00:26.938Z,0.00
2023-03-03T22:05:28.717Z,0.00
2023-03-03T22:10:35.019Z,0.00
2023-03-03T22:15:23.641Z,0.00
2023-03-03T22:20:30.687Z,0.00
2023-03-03T22:25:18.503Z,0.00
2023-03-03T22:30:24.976Z,0.00
2023-03-03T22:35:31.063Z,0.00
2023-03-03T22:40:21.910Z,0.00
2023-03-03T22:45:26.496Z,0.00
2023-03-03T22:50:32.320Z,0.00
2023-03-03T22:55:23.669Z,0.00
2023-03-03T23:00:30.054Z,0.00
2023-03-03T23:05:34.388Z,0.00
2023-03-03T23:10:23.845Z,0.00
2023-03-03T23:15:28.461Z,0.00
2023-03-03T23:20:34.350Z,0.00
2023-03-03T23:25:22.452Z,0.00
2023-03-03T23:30:29.756Z,0.00
2023-03-03T23:35:34.741Z,0.00
2023-03-03T23:40:26.214Z,0.00
2023-03-03T23:45:29.935Z,0.00
2023-03-03T23:50:19.210Z,0.00
2023-03-03T23:55:29.979Z,0.00
